sensor_id;sensor_type;location;lat;lon;timestamp;P1;durP1;ratioP1;P2;durP2;ratioP2
12840;SDS011;6487;48.626;12.486;2022-09-21T00:01:36;3.33;;;1.53;;
12840;SDS011;6487;48.626;12.486;2022-09-21T00:04:04;1.40;;;1.30;;
12840;SDS011;6487;48.626;12.486;2022-09-21T00:06:33;1.90;;;1.50;;
12840;SDS011;6487;48.626;12.486;2022-09-21T00:09:02;2.17;;;1.60;;
12840;SDS011;6487;48.626;12.486;2022-09-21T00:11:34;2.10;;;1.70;;
12840;SDS011;6487;48.626;12.486;2022-09-21T00:14:04;1.90;;;1.70;;
12840;SDS011;6487;48.626;12.486;2022-09-21T00:16:35;2.27;;;1.70;;
12840;SDS011;6487;48.626;12.486;2022-09-21T00:19:05;1.70;;;1.60;;
12840;SDS011;6487;48.626;12.486;2022-09-21T00:21:33;1.97;;;1.67;;
12840;SDS011;6487;48.626;12.486;2022-09-21T00:24:03;3.63;;;1.80;;
12840;SDS011;6487;48.626;12.486;2022-09-21T00:26:32;1.70;;;1.60;;
12840;SDS011;6487;48.626;12.486;2022-09-21T00:29:02;1.77;;;1.60;;
12840;SDS011;6487;48.626;12.486;2022-09-21T00:31:32;1.60;;;1.50;;
12840;SDS011;6487;48.626;12.486;2022-09-21T00:34:00;2.27;;;1.80;;
12840;SDS011;6487;48.626;12.486;2022-09-21T00:36:33;1.87;;;1.63;;
12840;SDS011;6487;48.626;12.486;2022-09-21T00:39:01;2.30;;;1.77;;
12840;SDS011;6487;48.626;12.486;2022-09-21T00:41:31;2.23;;;1.70;;
12840;SDS011;6487;48.626;12.486;2022-09-21T00:46:58;2.00;;;1.80;;
12840;SDS011;6487;48.626;12.486;2022-09-21T00:49:33;1.60;;;1.50;;
12840;SDS011;6487;48.626;12.486;2022-09-21T00:52:04;2.53;;;1.67;;
12840;SDS011;6487;48.626;12.486;2022-09-21T00:54:35;1.70;;;1.60;;
12840;SDS011;6487;48.626;12.486;2022-09-21T00:57:10;1.70;;;1.60;;
12840;SDS011;6487;48.626;12.486;2022-09-21T00:59:38;2.13;;;1.80;;
12840;SDS011;6487;48.626;12.486;2022-09-21T01:02:09;2.23;;;1.50;;
12840;SDS011;6487;48.626;12.486;2022-09-21T01:04:38;2.37;;;1.77;;
12840;SDS011;6487;48.626;12.486;2022-09-21T01:07:07;1.50;;;1.40;;
12840;SDS011;6487;48.626;12.486;2022-09-21T01:09:44;1.60;;;1.50;;
12840;SDS011;6487;48.626;12.486;2022-09-21T01:12:22;2.47;;;1.80;;
12840;SDS011;6487;48.626;12.486;2022-09-21T01:15:09;1.50;;;1.40;;
12840;SDS011;6487;48.626;12.486;2022-09-21T01:17:49;3.73;;;1.80;;
12840;SDS011;6487;48.626;12.486;2022-09-21T01:20:33;3.77;;;1.60;;
12840;SDS011;6487;48.626;12.486;2022-09-21T01:23:30;3.13;;;1.83;;
12840;SDS011;6487;48.626;12.486;2022-09-21T01:26:14;2.03;;;1.70;;
12840;SDS011;6487;48.626;12.486;2022-09-21T01:29:08;3.23;;;1.53;;
12840;SDS011;6487;48.626;12.486;2022-09-21T01:31:48;1.97;;;1.73;;
12840;SDS011;6487;48.626;12.486;2022-09-21T01:34:23;1.47;;;1.37;;
12840;SDS011;6487;48.626;12.486;2022-09-21T01:36:57;1.60;;;1.50;;
12840;SDS011;6487;48.626;12.486;2022-09-21T01:39:32;1.73;;;1.50;;
12840;SDS011;6487;48.626;12.486;2022-09-21T01:42:02;3.20;;;1.33;;
12840;SDS011;6487;48.626;12.486;2022-09-21T01:44:35;1.83;;;1.73;;
12840;SDS011;6487;48.626;12.486;2022-09-21T01:47:06;1.67;;;1.57;;
12840;SDS011;6487;48.626;12.486;2022-09-21T01:49:38;3.43;;;1.67;;
12840;SDS011;6487;48.626;12.486;2022-09-21T01:52:13;1.93;;;1.60;;
12840;SDS011;6487;48.626;12.486;2022-09-21T01:54:47;1.70;;;1.40;;
12840;SDS011;6487;48.626;12.486;2022-09-21T01:57:22;1.87;;;1.50;;
12840;SDS011;6487;48.626;12.486;2022-09-21T01:59:57;3.87;;;1.67;;
12840;SDS011;6487;48.626;12.486;2022-09-21T02:02:29;2.60;;;1.43;;
12840;SDS011;6487;48.626;12.486;2022-09-21T02:05:03;2.03;;;1.63;;
12840;SDS011;6487;48.626;12.486;2022-09-21T02:07:33;2.40;;;1.43;;
12840;SDS011;6487;48.626;12.486;2022-09-21T02:10:05;1.57;;;1.43;;
12840;SDS011;6487;48.626;12.486;2022-09-21T02:12:36;2.10;;;1.60;;
12840;SDS011;6487;48.626;12.486;2022-09-21T02:15:06;1.97;;;1.80;;
12840;SDS011;6487;48.626;12.486;2022-09-21T02:17:39;2.23;;;1.47;;
12840;SDS011;6487;48.626;12.486;2022-09-21T02:20:22;2.00;;;1.80;;
12840;SDS011;6487;48.626;12.486;2022-09-21T02:22:58;3.57;;;1.77;;
12840;SDS011;6487;48.626;12.486;2022-09-21T02:25:36;2.70;;;1.47;;
12840;SDS011;6487;48.626;12.486;2022-09-21T02:28:15;3.00;;;1.87;;
12840;SDS011;6487;48.626;12.486;2022-09-21T02:30:58;2.10;;;1.47;;
12840;SDS011;6487;48.626;12.486;2022-09-21T02:33:36;3.20;;;2.00;;
12840;SDS011;6487;48.626;12.486;2022-09-21T02:36:16;2.03;;;1.83;;
12840;SDS011;6487;48.626;12.486;2022-09-21T02:38:52;3.07;;;1.80;;
12840;SDS011;6487;48.626;12.486;2022-09-21T02:41:38;3.67;;;1.70;;
12840;SDS011;6487;48.626;12.486;2022-09-21T02:44:14;1.83;;;1.73;;
12840;SDS011;6487;48.626;12.486;2022-09-21T02:46:52;1.80;;;1.70;;
12840;SDS011;6487;48.626;12.486;2022-09-21T02:49:24;2.73;;;1.50;;
12840;SDS011;6487;48.626;12.486;2022-09-21T02:51:59;2.87;;;1.80;;
12840;SDS011;6487;48.626;12.486;2022-09-21T02:54:32;2.17;;;2.00;;
12840;SDS011;6487;48.626;12.486;2022-09-21T02:57:02;1.77;;;1.67;;
12840;SDS011;6487;48.626;12.486;2022-09-21T02:59:32;1.57;;;1.40;;
12840;SDS011;6487;48.626;12.486;2022-09-21T03:02:02;2.13;;;1.50;;
12840;SDS011;6487;48.626;12.486;2022-09-21T03:04:32;2.73;;;1.57;;
12840;SDS011;6487;48.626;12.486;2022-09-21T03:07:00;3.07;;;1.57;;
12840;SDS011;6487;48.626;12.486;2022-09-21T03:09:29;2.90;;;1.60;;
12840;SDS011;6487;48.626;12.486;2022-09-21T03:11:57;1.70;;;1.30;;
12840;SDS011;6487;48.626;12.486;2022-09-21T03:14:25;2.23;;;1.83;;
12840;SDS011;6487;48.626;12.486;2022-09-21T03:16:53;3.50;;;1.70;;
12840;SDS011;6487;48.626;12.486;2022-09-21T03:19:23;3.27;;;2.17;;
12840;SDS011;6487;48.626;12.486;2022-09-21T03:21:52;2.20;;;1.80;;
12840;SDS011;6487;48.626;12.486;2022-09-21T03:24:20;3.33;;;2.03;;
12840;SDS011;6487;48.626;12.486;2022-09-21T03:27:03;2.13;;;1.80;;
12840;SDS011;6487;48.626;12.486;2022-09-21T03:29:31;2.30;;;1.70;;
12840;SDS011;6487;48.626;12.486;2022-09-21T03:31:59;1.40;;;1.30;;
12840;SDS011;6487;48.626;12.486;2022-09-21T03:34:30;3.17;;;1.60;;
12840;SDS011;6487;48.626;12.486;2022-09-21T03:36:59;5.60;;;1.80;;
12840;SDS011;6487;48.626;12.486;2022-09-21T03:39:28;1.90;;;1.60;;
12840;SDS011;6487;48.626;12.486;2022-09-21T03:41:57;1.60;;;1.50;;
12840;SDS011;6487;48.626;12.486;2022-09-21T03:44:25;4.27;;;1.70;;
12840;SDS011;6487;48.626;12.486;2022-09-21T03:46:54;1.83;;;1.50;;
12840;SDS011;6487;48.626;12.486;2022-09-21T03:49:23;1.97;;;1.77;;
12840;SDS011;6487;48.626;12.486;2022-09-21T03:51:52;2.13;;;1.87;;
12840;SDS011;6487;48.626;12.486;2022-09-21T03:54:21;4.10;;;1.73;;
12840;SDS011;6487;48.626;12.486;2022-09-21T03:56:49;2.10;;;1.90;;
12840;SDS011;6487;48.626;12.486;2022-09-21T03:59:18;2.83;;;2.63;;
12840;SDS011;6487;48.626;12.486;2022-09-21T04:01:46;2.80;;;2.50;;
12840;SDS011;6487;48.626;12.486;2022-09-21T04:04:15;3.30;;;2.30;;
12840;SDS011;6487;48.626;12.486;2022-09-21T04:06:43;2.70;;;2.30;;
12840;SDS011;6487;48.626;12.486;2022-09-21T04:09:13;3.17;;;2.10;;
12840;SDS011;6487;48.626;12.486;2022-09-21T04:11:43;2.70;;;1.90;;
12840;SDS011;6487;48.626;12.486;2022-09-21T04:14:11;3.47;;;2.30;;
12840;SDS011;6487;48.626;12.486;2022-09-21T04:16:40;2.20;;;2.00;;
12840;SDS011;6487;48.626;12.486;2022-09-21T04:19:08;2.10;;;1.90;;
12840;SDS011;6487;48.626;12.486;2022-09-21T04:21:36;4.30;;;2.17;;
12840;SDS011;6487;48.626;12.486;2022-09-21T04:24:05;2.93;;;2.10;;
12840;SDS011;6487;48.626;12.486;2022-09-21T04:26:35;2.30;;;2.10;;
12840;SDS011;6487;48.626;12.486;2022-09-21T04:29:03;2.50;;;2.30;;
12840;SDS011;6487;48.626;12.486;2022-09-21T04:31:32;3.53;;;2.90;;
12840;SDS011;6487;48.626;12.486;2022-09-21T04:34:01;8.53;;;2.97;;
12840;SDS011;6487;48.626;12.486;2022-09-21T04:36:29;30.33;;;3.87;;
12840;SDS011;6487;48.626;12.486;2022-09-21T04:39:02;7.83;;;2.80;;
12840;SDS011;6487;48.626;12.486;2022-09-21T04:41:31;7.97;;;2.73;;
12840;SDS011;6487;48.626;12.486;2022-09-21T04:44:01;76.83;;;5.23;;
12840;SDS011;6487;48.626;12.486;2022-09-21T04:46:29;7.33;;;2.50;;
12840;SDS011;6487;48.626;12.486;2022-09-21T04:48:57;108.50;;;7.03;;
12840;SDS011;6487;48.626;12.486;2022-09-21T04:51:26;186.60;;;9.23;;
12840;SDS011;6487;48.626;12.486;2022-09-21T04:53:54;38.97;;;4.20;;
12840;SDS011;6487;48.626;12.486;2022-09-21T04:56:22;90.97;;;8.23;;
12840;SDS011;6487;48.626;12.486;2022-09-21T04:58:50;46.33;;;4.60;;
12840;SDS011;6487;48.626;12.486;2022-09-21T05:01:20;24.77;;;3.57;;
12840;SDS011;6487;48.626;12.486;2022-09-21T05:03:48;39.77;;;3.80;;
12840;SDS011;6487;48.626;12.486;2022-09-21T05:06:17;66.27;;;3.77;;
12840;SDS011;6487;48.626;12.486;2022-09-21T05:08:45;78.47;;;5.07;;
12840;SDS011;6487;48.626;12.486;2022-09-21T05:11:31;15.87;;;3.50;;
12840;SDS011;6487;48.626;12.486;2022-09-21T05:13:59;19.47;;;2.60;;
12840;SDS011;6487;48.626;12.486;2022-09-21T05:16:29;45.17;;;3.93;;
12840;SDS011;6487;48.626;12.486;2022-09-21T05:18:57;24.23;;;3.10;;
12840;SDS011;6487;48.626;12.486;2022-09-21T05:21:25;7.23;;;2.70;;
12840;SDS011;6487;48.626;12.486;2022-09-21T05:23:54;6.30;;;1.97;;
12840;SDS011;6487;48.626;12.486;2022-09-21T05:26:22;29.30;;;3.60;;
12840;SDS011;6487;48.626;12.486;2022-09-21T05:28:51;42.83;;;4.93;;
12840;SDS011;6487;48.626;12.486;2022-09-21T05:31:29;75.37;;;4.57;;
12840;SDS011;6487;48.626;12.486;2022-09-21T05:34:05;46.97;;;3.90;;
12840;SDS011;6487;48.626;12.486;2022-09-21T05:36:55;20.47;;;2.80;;
12840;SDS011;6487;48.626;12.486;2022-09-21T05:39:29;3.90;;;1.93;;
12840;SDS011;6487;48.626;12.486;2022-09-21T05:41:58;3.87;;;2.47;;
12840;SDS011;6487;48.626;12.486;2022-09-21T05:44:27;19.20;;;3.73;;
12840;SDS011;6487;48.626;12.486;2022-09-21T05:47:00;7.97;;;2.93;;
12840;SDS011;6487;48.626;12.486;2022-09-21T05:49:39;3.37;;;2.40;;
12840;SDS011;6487;48.626;12.486;2022-09-21T05:52:18;5.27;;;2.40;;
12840;SDS011;6487;48.626;12.486;2022-09-21T05:58:16;2.53;;;2.17;;
12840;SDS011;6487;48.626;12.486;2022-09-21T06:00:58;3.03;;;2.83;;
12840;SDS011;6487;48.626;12.486;2022-09-21T06:03:43;8.37;;;2.97;;
12840;SDS011;6487;48.626;12.486;2022-09-21T06:06:18;2.70;;;2.40;;
12840;SDS011;6487;48.626;12.486;2022-09-21T06:08:47;2.67;;;2.47;;
12840;SDS011;6487;48.626;12.486;2022-09-21T06:11:16;4.60;;;3.33;;
12840;SDS011;6487;48.626;12.486;2022-09-21T06:13:45;4.83;;;3.47;;
12840;SDS011;6487;48.626;12.486;2022-09-21T06:16:13;5.77;;;3.60;;
12840;SDS011;6487;48.626;12.486;2022-09-21T06:18:43;3.80;;;3.27;;
12840;SDS011;6487;48.626;12.486;2022-09-21T06:21:11;4.90;;;3.20;;
12840;SDS011;6487;48.626;12.486;2022-09-21T06:23:39;11.70;;;3.57;;
12840;SDS011;6487;48.626;12.486;2022-09-21T06:26:07;62.00;;;5.23;;
12840;SDS011;6487;48.626;12.486;2022-09-21T06:28:36;21.17;;;3.10;;
12840;SDS011;6487;48.626;12.486;2022-09-21T06:31:04;7.23;;;3.13;;
12840;SDS011;6487;48.626;12.486;2022-09-21T06:33:32;52.00;;;5.13;;
12840;SDS011;6487;48.626;12.486;2022-09-21T06:36:04;30.43;;;4.33;;
12840;SDS011;6487;48.626;12.486;2022-09-21T06:38:33;4.50;;;3.70;;
12840;SDS011;6487;48.626;12.486;2022-09-21T06:41:02;58.13;;;5.87;;
12840;SDS011;6487;48.626;12.486;2022-09-21T06:43:31;10.50;;;5.03;;
12840;SDS011;6487;48.626;12.486;2022-09-21T06:46:00;7.50;;;4.83;;
12840;SDS011;6487;48.626;12.486;2022-09-21T06:48:29;25.63;;;5.67;;
12840;SDS011;6487;48.626;12.486;2022-09-21T06:51:00;12.77;;;4.67;;
12840;SDS011;6487;48.626;12.486;2022-09-21T06:53:32;9.33;;;4.30;;
12840;SDS011;6487;48.626;12.486;2022-09-21T06:56:01;17.03;;;5.27;;
12840;SDS011;6487;48.626;12.486;2022-09-21T06:58:32;5.23;;;4.27;;
12840;SDS011;6487;48.626;12.486;2022-09-21T07:01:05;5.63;;;4.77;;
12840;SDS011;6487;48.626;12.486;2022-09-21T07:03:35;8.40;;;3.87;;
12840;SDS011;6487;48.626;12.486;2022-09-21T07:06:06;16.47;;;4.63;;
12840;SDS011;6487;48.626;12.486;2022-09-21T07:08:37;19.87;;;4.90;;
12840;SDS011;6487;48.626;12.486;2022-09-21T07:11:25;12.33;;;4.33;;
12840;SDS011;6487;48.626;12.486;2022-09-21T07:13:53;18.27;;;4.90;;
12840;SDS011;6487;48.626;12.486;2022-09-21T07:16:23;5.07;;;4.20;;
12840;SDS011;6487;48.626;12.486;2022-09-21T07:18:53;40.73;;;6.23;;
12840;SDS011;6487;48.626;12.486;2022-09-21T07:21:24;8.50;;;4.90;;
12840;SDS011;6487;48.626;12.486;2022-09-21T07:23:52;24.50;;;5.90;;
12840;SDS011;6487;48.626;12.486;2022-09-21T07:26:20;11.30;;;5.97;;
12840;SDS011;6487;48.626;12.486;2022-09-21T07:28:49;12.57;;;6.33;;
12840;SDS011;6487;48.626;12.486;2022-09-21T07:31:17;24.07;;;6.10;;
12840;SDS011;6487;48.626;12.486;2022-09-21T07:33:45;13.23;;;5.73;;
12840;SDS011;6487;48.626;12.486;2022-09-21T07:36:13;11.47;;;5.73;;
12840;SDS011;6487;48.626;12.486;2022-09-21T07:38:44;6.13;;;5.43;;
12840;SDS011;6487;48.626;12.486;2022-09-21T07:41:12;9.17;;;6.30;;
12840;SDS011;6487;48.626;12.486;2022-09-21T07:43:41;9.83;;;5.77;;
12840;SDS011;6487;48.626;12.486;2022-09-21T07:46:10;9.60;;;5.70;;
12840;SDS011;6487;48.626;12.486;2022-09-21T07:48:40;8.30;;;5.83;;
12840;SDS011;6487;48.626;12.486;2022-09-21T07:51:10;13.30;;;5.97;;
12840;SDS011;6487;48.626;12.486;2022-09-21T07:53:41;6.13;;;5.50;;
12840;SDS011;6487;48.626;12.486;2022-09-21T07:56:12;8.27;;;5.13;;
12840;SDS011;6487;48.626;12.486;2022-09-21T07:58:43;5.73;;;4.50;;
12840;SDS011;6487;48.626;12.486;2022-09-21T08:01:28;5.17;;;4.67;;
12840;SDS011;6487;48.626;12.486;2022-09-21T08:03:57;5.67;;;4.80;;
12840;SDS011;6487;48.626;12.486;2022-09-21T08:06:27;5.37;;;4.50;;
12840;SDS011;6487;48.626;12.486;2022-09-21T08:08:59;7.37;;;4.53;;
12840;SDS011;6487;48.626;12.486;2022-09-21T08:11:29;6.97;;;4.70;;
12840;SDS011;6487;48.626;12.486;2022-09-21T08:13:59;6.13;;;4.60;;
12840;SDS011;6487;48.626;12.486;2022-09-21T08:16:29;8.70;;;5.13;;
12840;SDS011;6487;48.626;12.486;2022-09-21T08:18:59;6.60;;;4.63;;
12840;SDS011;6487;48.626;12.486;2022-09-21T08:21:28;4.57;;;4.13;;
12840;SDS011;6487;48.626;12.486;2022-09-21T08:23:56;4.33;;;3.90;;
12840;SDS011;6487;48.626;12.486;2022-09-21T08:26:26;4.90;;;4.43;;
12840;SDS011;6487;48.626;12.486;2022-09-21T08:28:54;5.47;;;4.97;;
12840;SDS011;6487;48.626;12.486;2022-09-21T08:31:24;4.97;;;4.57;;
12840;SDS011;6487;48.626;12.486;2022-09-21T08:33:53;7.70;;;4.50;;
12840;SDS011;6487;48.626;12.486;2022-09-21T08:36:22;5.67;;;4.37;;
12840;SDS011;6487;48.626;12.486;2022-09-21T08:38:51;5.13;;;4.33;;
12840;SDS011;6487;48.626;12.486;2022-09-21T08:41:22;5.10;;;4.60;;
12840;SDS011;6487;48.626;12.486;2022-09-21T08:43:58;5.43;;;4.50;;
12840;SDS011;6487;48.626;12.486;2022-09-21T08:46:31;5.30;;;4.40;;
12840;SDS011;6487;48.626;12.486;2022-09-21T08:49:01;6.27;;;4.30;;
12840;SDS011;6487;48.626;12.486;2022-09-21T08:51:35;5.27;;;4.80;;
12840;SDS011;6487;48.626;12.486;2022-09-21T08:54:11;4.53;;;4.20;;
12840;SDS011;6487;48.626;12.486;2022-09-21T08:56:47;5.70;;;4.37;;
12840;SDS011;6487;48.626;12.486;2022-09-21T08:59:31;7.13;;;4.50;;
12840;SDS011;6487;48.626;12.486;2022-09-21T09:02:02;7.80;;;4.40;;
12840;SDS011;6487;48.626;12.486;2022-09-21T09:04:49;4.70;;;4.30;;
12840;SDS011;6487;48.626;12.486;2022-09-21T09:07:33;5.10;;;4.53;;
12840;SDS011;6487;48.626;12.486;2022-09-21T09:10:27;4.80;;;4.40;;
12840;SDS011;6487;48.626;12.486;2022-09-21T09:13:12;4.60;;;4.20;;
12840;SDS011;6487;48.626;12.486;2022-09-21T09:16:05;5.07;;;4.60;;
12840;SDS011;6487;48.626;12.486;2022-09-21T09:18:43;5.00;;;4.60;;
12840;SDS011;6487;48.626;12.486;2022-09-21T09:21:18;4.87;;;4.47;;
12840;SDS011;6487;48.626;12.486;2022-09-21T09:23:57;5.50;;;4.00;;
12840;SDS011;6487;48.626;12.486;2022-09-21T09:26:31;4.90;;;4.40;;
12840;SDS011;6487;48.626;12.486;2022-09-21T09:29:12;6.77;;;4.40;;
12840;SDS011;6487;48.626;12.486;2022-09-21T09:31:48;6.03;;;4.60;;
12840;SDS011;6487;48.626;12.486;2022-09-21T09:34:21;5.77;;;4.40;;
12840;SDS011;6487;48.626;12.486;2022-09-21T09:36:56;4.53;;;4.13;;
12840;SDS011;6487;48.626;12.486;2022-09-21T09:39:27;4.00;;;3.70;;
12840;SDS011;6487;48.626;12.486;2022-09-21T09:45:13;3.27;;;2.97;;
12840;SDS011;6487;48.626;12.486;2022-09-21T09:47:59;3.30;;;3.00;;
12840;SDS011;6487;48.626;12.486;2022-09-21T09:50:41;3.37;;;3.07;;
12840;SDS011;6487;48.626;12.486;2022-09-21T09:53:11;3.43;;;3.13;;
12840;SDS011;6487;48.626;12.486;2022-09-21T09:55:43;4.80;;;3.33;;
12840;SDS011;6487;48.626;12.486;2022-09-21T09:58:16;3.77;;;3.20;;
12840;SDS011;6487;48.626;12.486;2022-09-21T10:00:49;3.23;;;2.93;;
12840;SDS011;6487;48.626;12.486;2022-09-21T10:03:21;4.00;;;2.90;;
12840;SDS011;6487;48.626;12.486;2022-09-21T10:05:51;4.00;;;3.17;;
12840;SDS011;6487;48.626;12.486;2022-09-21T10:08:39;3.00;;;2.70;;
12840;SDS011;6487;48.626;12.486;2022-09-21T10:11:12;2.97;;;2.73;;
12840;SDS011;6487;48.626;12.486;2022-09-21T10:13:42;2.57;;;2.37;;
12840;SDS011;6487;48.626;12.486;2022-09-21T10:16:18;2.60;;;2.40;;
12840;SDS011;6487;48.626;12.486;2022-09-21T10:18:49;2.77;;;2.20;;
12840;SDS011;6487;48.626;12.486;2022-09-21T10:21:21;2.43;;;2.23;;
12840;SDS011;6487;48.626;12.486;2022-09-21T10:23:52;2.47;;;2.27;;
12840;SDS011;6487;48.626;12.486;2022-09-21T10:26:29;2.47;;;2.27;;
12840;SDS011;6487;48.626;12.486;2022-09-21T10:28:59;3.03;;;2.33;;
12840;SDS011;6487;48.626;12.486;2022-09-21T10:31:30;1.97;;;1.80;;
12840;SDS011;6487;48.626;12.486;2022-09-21T10:34:04;4.20;;;2.00;;
12840;SDS011;6487;48.626;12.486;2022-09-21T10:36:39;1.90;;;1.80;;
12840;SDS011;6487;48.626;12.486;2022-09-21T10:39:17;2.43;;;2.23;;
12840;SDS011;6487;48.626;12.486;2022-09-21T10:41:56;2.70;;;2.50;;
12840;SDS011;6487;48.626;12.486;2022-09-21T10:44:37;2.63;;;2.43;;
12840;SDS011;6487;48.626;12.486;2022-09-21T10:47:19;2.77;;;2.43;;
12840;SDS011;6487;48.626;12.486;2022-09-21T10:49:50;2.10;;;1.93;;
12840;SDS011;6487;48.626;12.486;2022-09-21T10:52:21;2.87;;;2.33;;
12840;SDS011;6487;48.626;12.486;2022-09-21T10:54:57;2.40;;;2.20;;
12840;SDS011;6487;48.626;12.486;2022-09-21T10:57:26;3.30;;;2.13;;
12840;SDS011;6487;48.626;12.486;2022-09-21T10:59:55;2.23;;;2.03;;
12840;SDS011;6487;48.626;12.486;2022-09-21T11:02:30;3.30;;;2.20;;
12840;SDS011;6487;48.626;12.486;2022-09-21T11:05:06;2.30;;;2.10;;
12840;SDS011;6487;48.626;12.486;2022-09-21T11:07:43;2.30;;;2.10;;
12840;SDS011;6487;48.626;12.486;2022-09-21T11:10:18;1.23;;;1.13;;
12840;SDS011;6487;48.626;12.486;2022-09-21T11:13:01;2.27;;;1.33;;
12840;SDS011;6487;48.626;12.486;2022-09-21T11:15:46;1.80;;;1.70;;
12840;SDS011;6487;48.626;12.486;2022-09-21T11:18:24;5.50;;;1.70;;
12840;SDS011;6487;48.626;12.486;2022-09-21T11:21:04;2.77;;;1.43;;
12840;SDS011;6487;48.626;12.486;2022-09-21T11:23:44;2.20;;;1.27;;
12840;SDS011;6487;48.626;12.486;2022-09-21T11:26:22;2.57;;;1.90;;
12840;SDS011;6487;48.626;12.486;2022-09-21T11:28:57;3.07;;;2.10;;
12840;SDS011;6487;48.626;12.486;2022-09-21T11:31:39;2.33;;;1.80;;
12840;SDS011;6487;48.626;12.486;2022-09-21T11:34:32;2.80;;;1.70;;
12840;SDS011;6487;48.626;12.486;2022-09-21T11:37:49;3.53;;;1.80;;
12840;SDS011;6487;48.626;12.486;2022-09-21T11:40:32;2.00;;;1.80;;
12840;SDS011;6487;48.626;12.486;2022-09-21T11:43:34;1.53;;;1.40;;
12840;SDS011;6487;48.626;12.486;2022-09-21T11:46:20;1.83;;;1.40;;
12840;SDS011;6487;48.626;12.486;2022-09-21T11:49:00;4.37;;;1.47;;
12840;SDS011;6487;48.626;12.486;2022-09-21T11:51:53;1.77;;;1.33;;
12840;SDS011;6487;48.626;12.486;2022-09-21T11:57:33;1.63;;;1.47;;
12840;SDS011;6487;48.626;12.486;2022-09-21T12:00:09;1.90;;;1.40;;
12840;SDS011;6487;48.626;12.486;2022-09-21T12:03:06;1.33;;;1.20;;
12840;SDS011;6487;48.626;12.486;2022-09-21T12:06:02;3.37;;;1.37;;
12840;SDS011;6487;48.626;12.486;2022-09-21T12:08:50;2.90;;;1.00;;
12840;SDS011;6487;48.626;12.486;2022-09-21T12:11:35;1.40;;;0.93;;
12840;SDS011;6487;48.626;12.486;2022-09-21T12:14:12;1.30;;;0.97;;
12840;SDS011;6487;48.626;12.486;2022-09-21T12:16:51;1.03;;;1.00;;
12840;SDS011;6487;48.626;12.486;2022-09-21T12:19:33;1.10;;;1.00;;
12840;SDS011;6487;48.626;12.486;2022-09-21T12:22:12;1.07;;;0.80;;
12840;SDS011;6487;48.626;12.486;2022-09-21T12:24:46;2.43;;;1.23;;
12840;SDS011;6487;48.626;12.486;2022-09-21T12:27:22;1.07;;;0.97;;
12840;SDS011;6487;48.626;12.486;2022-09-21T12:29:56;1.50;;;1.40;;
12840;SDS011;6487;48.626;12.486;2022-09-21T12:32:32;3.60;;;1.23;;
12840;SDS011;6487;48.626;12.486;2022-09-21T12:35:15;1.90;;;1.10;;
12840;SDS011;6487;48.626;12.486;2022-09-21T12:37:50;1.27;;;1.17;;
12840;SDS011;6487;48.626;12.486;2022-09-21T12:40:30;0.90;;;0.80;;
12840;SDS011;6487;48.626;12.486;2022-09-21T12:43:07;1.23;;;0.70;;
12840;SDS011;6487;48.626;12.486;2022-09-21T12:45:50;0.63;;;0.60;;
12840;SDS011;6487;48.626;12.486;2022-09-21T12:48:29;1.00;;;0.80;;
12840;SDS011;6487;48.626;12.486;2022-09-21T12:51:03;1.03;;;0.60;;
12840;SDS011;6487;48.626;12.486;2022-09-21T12:53:41;1.30;;;0.80;;
12840;SDS011;6487;48.626;12.486;2022-09-21T12:56:20;3.00;;;0.90;;
12840;SDS011;6487;48.626;12.486;2022-09-21T12:59:08;0.57;;;0.53;;
12840;SDS011;6487;48.626;12.486;2022-09-21T13:01:51;1.30;;;0.70;;
12840;SDS011;6487;48.626;12.486;2022-09-21T13:04:36;0.80;;;0.80;;
12840;SDS011;6487;48.626;12.486;2022-09-21T13:07:27;0.57;;;0.57;;
12840;SDS011;6487;48.626;12.486;2022-09-21T13:10:21;0.70;;;0.70;;
12840;SDS011;6487;48.626;12.486;2022-09-21T13:13:06;1.33;;;1.00;;
12840;SDS011;6487;48.626;12.486;2022-09-21T13:15:45;1.13;;;0.97;;
12840;SDS011;6487;48.626;12.486;2022-09-21T13:18:16;1.37;;;1.00;;
12840;SDS011;6487;48.626;12.486;2022-09-21T13:20:50;2.10;;;0.73;;
12840;SDS011;6487;48.626;12.486;2022-09-21T13:23:22;1.17;;;0.70;;
12840;SDS011;6487;48.626;12.486;2022-09-21T13:26:00;1.90;;;1.10;;
12840;SDS011;6487;48.626;12.486;2022-09-21T13:31:42;1.43;;;0.80;;
12840;SDS011;6487;48.626;12.486;2022-09-21T13:34:24;1.17;;;0.80;;
12840;SDS011;6487;48.626;12.486;2022-09-21T13:43:14;1.50;;;1.23;;
12840;SDS011;6487;48.626;12.486;2022-09-21T13:45:52;1.17;;;1.00;;
12840;SDS011;6487;48.626;12.486;2022-09-21T13:48:24;4.27;;;3.10;;
12840;SDS011;6487;48.626;12.486;2022-09-21T13:51:00;1.70;;;1.10;;
12840;SDS011;6487;48.626;12.486;2022-09-21T13:53:36;2.03;;;1.33;;
12840;SDS011;6487;48.626;12.486;2022-09-21T13:56:08;1.40;;;0.80;;
12840;SDS011;6487;48.626;12.486;2022-09-21T13:58:46;1.20;;;0.60;;
12840;SDS011;6487;48.626;12.486;2022-09-21T14:01:20;0.63;;;0.63;;
12840;SDS011;6487;48.626;12.486;2022-09-21T14:04:18;0.80;;;0.80;;
12840;SDS011;6487;48.626;12.486;2022-09-21T14:06:51;0.60;;;0.60;;
12840;SDS011;6487;48.626;12.486;2022-09-21T14:09:23;1.00;;;0.90;;
12840;SDS011;6487;48.626;12.486;2022-09-21T14:11:56;0.50;;;0.50;;
12840;SDS011;6487;48.626;12.486;2022-09-21T14:14:29;0.60;;;0.60;;
12840;SDS011;6487;48.626;12.486;2022-09-21T14:17:03;1.13;;;0.67;;
12840;SDS011;6487;48.626;12.486;2022-09-21T14:19:58;1.63;;;0.60;;
12840;SDS011;6487;48.626;12.486;2022-09-21T14:22:37;1.03;;;0.50;;
12840;SDS011;6487;48.626;12.486;2022-09-21T14:28:16;1.10;;;0.60;;
12840;SDS011;6487;48.626;12.486;2022-09-21T14:30:49;1.33;;;0.60;;
12840;SDS011;6487;48.626;12.486;2022-09-21T14:33:25;1.50;;;0.80;;
12840;SDS011;6487;48.626;12.486;2022-09-21T14:35:59;0.80;;;0.60;;
12840;SDS011;6487;48.626;12.486;2022-09-21T14:38:35;1.93;;;0.70;;
12840;SDS011;6487;48.626;12.486;2022-09-21T14:41:18;0.87;;;0.80;;
12840;SDS011;6487;48.626;12.486;2022-09-21T14:43:51;0.70;;;0.60;;
12840;SDS011;6487;48.626;12.486;2022-09-21T14:46:31;2.50;;;0.73;;
12840;SDS011;6487;48.626;12.486;2022-09-21T14:49:33;0.73;;;0.70;;
12840;SDS011;6487;48.626;12.486;2022-09-21T14:52:20;0.60;;;0.60;;
12840;SDS011;6487;48.626;12.486;2022-09-21T14:55:01;0.80;;;0.60;;
12840;SDS011;6487;48.626;12.486;2022-09-21T15:00:46;0.57;;;0.47;;
12840;SDS011;6487;48.626;12.486;2022-09-21T15:06:13;0.80;;;0.70;;
12840;SDS011;6487;48.626;12.486;2022-09-21T15:09:14;1.57;;;0.87;;
12840;SDS011;6487;48.626;12.486;2022-09-21T15:12:20;1.13;;;1.00;;
12840;SDS011;6487;48.626;12.486;2022-09-21T15:14:55;0.63;;;0.60;;
12840;SDS011;6487;48.626;12.486;2022-09-21T15:17:50;1.77;;;1.50;;
12840;SDS011;6487;48.626;12.486;2022-09-21T15:20:25;1.33;;;0.97;;
12840;SDS011;6487;48.626;12.486;2022-09-21T15:22:56;0.90;;;0.70;;
12840;SDS011;6487;48.626;12.486;2022-09-21T15:25:26;2.50;;;0.90;;
12840;SDS011;6487;48.626;12.486;2022-09-21T15:27:58;1.57;;;1.00;;
12840;SDS011;6487;48.626;12.486;2022-09-21T15:30:27;1.77;;;1.00;;
12840;SDS011;6487;48.626;12.486;2022-09-21T15:32:59;1.27;;;0.90;;
12840;SDS011;6487;48.626;12.486;2022-09-21T15:35:29;0.83;;;0.83;;
12840;SDS011;6487;48.626;12.486;2022-09-21T15:38:00;2.63;;;1.10;;
12840;SDS011;6487;48.626;12.486;2022-09-21T15:40:29;1.53;;;0.93;;
12840;SDS011;6487;48.626;12.486;2022-09-21T15:43:02;1.10;;;1.00;;
12840;SDS011;6487;48.626;12.486;2022-09-21T15:45:36;1.10;;;1.00;;
12840;SDS011;6487;48.626;12.486;2022-09-21T15:48:16;1.20;;;1.10;;
12840;SDS011;6487;48.626;12.486;2022-09-21T15:50:46;1.40;;;1.20;;
12840;SDS011;6487;48.626;12.486;2022-09-21T15:53:20;1.30;;;1.03;;
12840;SDS011;6487;48.626;12.486;2022-09-21T15:55:52;1.30;;;1.20;;
12840;SDS011;6487;48.626;12.486;2022-09-21T15:58:28;1.40;;;1.30;;
12840;SDS011;6487;48.626;12.486;2022-09-21T16:01:02;1.87;;;1.67;;